​ ​

Форум клана ЧПУшников

Информация о пользователе

Привет, Гость! Войдите или зарегистрируйтесь.


Вы здесь » Форум клана ЧПУшников » Лазерные станки


Лазерные станки

Тем 481 страница 560 из 648

Тема Ответов Просмотров Последнее сообщение
7 520 19-08-2016 12:28:43  Юрий Анатольевич
14 2413 19-08-2016 09:59:24  cheeze
7 517 16-08-2016 14:15:08  Юрий Анатольевич
21 1344 06-08-2016 12:42:16  vasa29
21 1456 29-07-2016 11:28:19  ЫХ-000
3 258 25-07-2016 12:13:13  Kuz
1 289 20-07-2016 16:00:47  Maxim Korolev
6 1021 19-07-2016 20:00:25  YuSTas
2 130 18-07-2016 10:25:53  byshaeva
81 2678 17-07-2016 11:06:33  Сергей Кравчик
2 274 09-07-2016 14:27:04  Killa312
11 895 07-07-2016 15:18:42  Hotory
25 794 27-06-2016 21:44:32  Salon-max
38 2182 27-06-2016 05:30:23  Юрецкий
14 478 26-06-2016 11:49:07  Quark
48 1414 24-06-2016 20:06:01  Иван1985
9 680 24-06-2016 19:54:50  Иван1985
16 717 24-06-2016 15:25:23  Sergey AA
2 134 24-06-2016 12:14:53  messer1988
8 534 22-06-2016 15:04:25  Sergey AA
8 1755 16-06-2016 22:36:09  megagad
502 Лазерное оборудование  Администратор  [ 1 2 3 ]
204 18724 12-06-2016 11:02:33  Andrey55
4 282 06-06-2016 09:19:33  Zmeei
24 1128 02-06-2016 16:29:32  Sofka
16 424 02-06-2016 09:43:13  ilcomp
3 164 31-05-2016 11:04:49  SmileCat
14 513 29-05-2016 10:38:37  Neudrums
19 1075 28-05-2016 00:03:48  Sborka
19 273 25-05-2016 12:15:46  Mikky
8 440 24-05-2016 15:31:24  sonr
21 3422 23-05-2016 23:42:46  Avel
512 Волнистый рез  angrydemon
4 296 23-05-2016 17:44:30  YuSTas
2 136 05-05-2016 11:02:05  Kuz
7 450 04-05-2016 01:16:19  snowman
10 426 28-04-2016 20:21:01  Kirian
1 169 28-04-2016 19:58:34  Kirian
37 1285 28-04-2016 14:14:04  neotex
3 827 27-04-2016 20:39:04  andrey_e
6 321 27-04-2016 16:16:09  denisej
520 Reci s2  Neudrums
35 937 26-04-2016 21:17:31  Элинка
5 518 25-04-2016 16:52:18  MPN
15 1781 23-04-2016 22:53:06  Sokrat
9 596 23-04-2016 17:45:11  Tab
35 1289 23-04-2016 13:05:00  Valera5609
18 1053 21-04-2016 12:07:58  f.laser
1 183 17-04-2016 23:10:04  megagad
527 Резка с углекислотой  Виктор Краски
23 970 17-04-2016 08:59:55  Flint2015
13 1954 15-04-2016 11:34:20  ImageLaser
11 327 11-04-2016 14:35:21  MaxMaster
13 419 09-04-2016 20:30:46  aldushin
5 296 06-04-2016 17:28:09  daguss
532 Закрыта Фото готовых работ выполненных на лазере  Администратор  [ 1 2 3  10 ]
991 99591 29-03-2016 17:50:18  sva-don
533 Закрыта Резко упала мощность  Neudrums
10 430 24-03-2016 00:59:57  Neudrums
5 531 22-03-2016 20:12:39  Дилик
535 Прошу помощи.  Назар
5 412 16-03-2016 09:51:09  Назар
8 262 14-03-2016 16:51:53  Расулыч
7 559 10-03-2016 20:36:59  chirik
5 841 07-03-2016 20:32:32  Flint2015
19 1827 04-03-2016 17:27:39  Airside
4 244 29-02-2016 22:43:44  nikson
5 198 27-02-2016 08:50:26  Flint2015
542 Тестирование размера реза  Виктор Краски
9 516 26-02-2016 16:55:55  daguss
543 кривая резка  Восходник
17 522 26-02-2016 00:06:30  semerochka
80 6983 22-02-2016 20:51:36  Kinetic
17 1112 22-02-2016 12:02:26  Kinetic
5 732 14-02-2016 15:24:59  gabber
7 669 14-02-2016 12:43:54  Zippo
12 405 12-02-2016 17:15:38  Yaroslavl
2 244 12-02-2016 10:23:44  Администратор
22 964 07-02-2016 15:27:40  Imobile
6 353 28-01-2016 17:09:21  StarPOM
25 1236 26-01-2016 15:23:58  Zippo
3 272 07-01-2016 00:45:42  okruk
4 280 05-01-2016 10:25:43  markaru
7 254 24-12-2015 12:08:34  lexus80
22 4038 21-12-2015 14:22:31  Kuz
14 442 14-12-2015 15:59:50  YuSTas
8 354 12-12-2015 20:20:10  Shamankiller
15 751 12-12-2015 18:02:39  racon75
38 1091 08-12-2015 23:46:50  asor

Вы здесь » Форум клана ЧПУшников » Лазерные станки